createdAt,value
2023-01-04T00:01:49.763Z,101777.00
2023-01-04T00:04:17.835Z,101772.53
2023-01-04T00:06:45.874Z,101765.66
2023-01-04T00:09:13.919Z,101757.75
2023-01-04T00:11:42.063Z,101747.38
2023-01-04T00:14:12.195Z,101752.75
2023-01-04T00:16:40.393Z,101735.22
2023-01-04T00:19:13.065Z,101733.53
2023-01-04T00:21:41.429Z,101736.19
2023-01-04T00:24:10.732Z,101725.88
2023-01-04T00:26:38.766Z,101722.38
2023-01-04T00:29:08.381Z,101718.84
2023-01-04T00:31:36.869Z,101717.97
2023-01-04T00:34:07.002Z,101713.69
2023-01-04T00:36:36.490Z,101705.81
2023-01-04T00:39:12.426Z,101700.63
2023-01-04T00:41:59.368Z,101703.38
2023-01-04T00:44:28.781Z,101692.84
2023-01-04T00:46:57.320Z,101686.75
2023-01-04T00:49:25.820Z,101679.88
2023-01-04T00:51:55.592Z,101682.56
2023-01-04T00:54:23.968Z,101679.06
2023-01-04T00:56:52.657Z,101662.41
2023-01-04T00:59:22.453Z,101648.53
2023-01-04T01:01:51.700Z,101639.66
2023-01-04T01:04:22.531Z,101631.00
2023-01-04T01:06:51.634Z,101614.59
2023-01-04T01:09:22.873Z,101630.97
2023-01-04T01:11:51.751Z,101620.50
2023-01-04T01:14:22.820Z,101616.88
2023-01-04T01:16:56.586Z,101628.94
2023-01-04T01:19:26.343Z,101605.44
2023-01-04T01:21:54.382Z,101616.66
2023-01-04T01:24:26.607Z,101617.41
2023-01-04T01:26:55.708Z,101612.88
2023-01-04T01:29:24.000Z,101609.34
2023-01-04T01:31:52.548Z,101602.28
2023-01-04T01:34:20.903Z,101595.44
2023-01-04T01:36:49.040Z,101587.44
2023-01-04T01:39:17.111Z,101586.56
2023-01-04T01:41:46.589Z,101579.53
2023-01-04T01:44:54.764Z,101573.47
2023-01-04T01:47:26.772Z,101567.34
2023-01-04T01:49:55.917Z,101571.59
2023-01-04T01:52:27.496Z,101574.16
2023-01-04T01:55:01.182Z,101574.06
2023-01-04T01:57:35.104Z,101575.75
2023-01-04T02:00:06.592Z,101572.94
2023-01-04T02:02:35.056Z,101555.47
2023-01-04T02:05:03.977Z,101551.88
2023-01-04T02:07:32.653Z,101537.81
2023-01-04T02:10:00.821Z,101547.09
2023-01-04T02:12:30.262Z,101543.56
2023-01-04T02:14:58.567Z,101538.19
2023-01-04T02:17:37.535Z,101538.06
2023-01-04T02:20:34.615Z,101541.47
2023-01-04T02:23:48.208Z,101518.75
2023-01-04T02:26:45.854Z,101516.13
2023-01-04T02:30:02.429Z,101521.25
2023-01-04T02:32:46.906Z,101531.59
2023-01-04T02:35:22.576Z,101532.44
2023-01-04T02:37:59.689Z,101507.03
2023-01-04T02:40:35.302Z,101507.13
2023-01-04T02:43:29.177Z,101506.13
2023-01-04T02:46:03.761Z,101495.59
2023-01-04T02:48:55.681Z,101496.44
2023-01-04T02:51:32.052Z,101488.34
2023-01-04T02:54:05.353Z,101482.28
2023-01-04T02:56:50.700Z,101475.25
2023-01-04T02:59:37.846Z,101471.66
2023-01-04T03:02:37.612Z,101468.13
2023-01-04T03:05:34.088Z,101474.16
2023-01-04T03:08:13.840Z,101451.50
2023-01-04T03:10:47.226Z,101460.03
2023-01-04T03:13:18.156Z,101454.69
2023-01-04T03:15:49.786Z,101448.47
2023-01-04T03:18:22.908Z,101451.00
2023-01-04T03:20:54.057Z,101435.22
2023-01-04T03:23:45.816Z,101433.50
2023-01-04T03:26:36.435Z,101426.22
2023-01-04T03:29:29.068Z,101432.25
2023-01-04T03:32:23.935Z,101432.09
2023-01-04T03:35:09.980Z,101425.88
2023-01-04T03:37:46.740Z,101416.22
2023-01-04T03:40:42.826Z,101417.06
2023-01-04T03:43:34.418Z,101409.16
2023-01-04T03:46:25.702Z,101410.00
2023-01-04T03:48:59.142Z,101402.94
2023-01-04T03:51:30.344Z,101401.91
2023-01-04T03:54:04.147Z,101400.78
2023-01-04T03:56:33.498Z,101398.97
2023-01-04T03:59:05.834Z,101395.44
2023-01-04T04:01:34.036Z,101394.44
2023-01-04T04:04:19.428Z,101389.88
2023-01-04T04:07:05.390Z,101389.88
2023-01-04T04:09:35.386Z,101396.69
2023-01-04T04:12:03.532Z,101394.69
2023-01-04T04:14:31.629Z,101381.38
2023-01-04T04:17:00.041Z,101385.59
2023-01-04T04:19:28.227Z,101391.63
2023-01-04T04:21:56.304Z,101381.91
2023-01-04T04:24:27.235Z,101376.53
2023-01-04T04:26:57.053Z,101386.06
2023-01-04T04:29:26.239Z,101377.19
2023-01-04T04:31:54.505Z,101376.13
2023-01-04T04:34:22.721Z,101374.91
2023-01-04T04:36:50.821Z,101359.31
2023-01-04T04:39:19.243Z,101362.72
2023-01-04T04:41:46.378Z,101367.06
2023-01-04T04:44:17.442Z,101358.19
2023-01-04T04:46:46.903Z,101358.03
2023-01-04T04:49:15.867Z,101351.84
2023-01-04T04:51:45.039Z,101349.97
2023-01-04T04:54:17.680Z,101343.66
2023-01-04T04:56:45.813Z,101352.53
2023-01-04T04:59:15.558Z,101356.94
2023-01-04T05:01:43.876Z,101355.84
2023-01-04T05:04:16.508Z,101348.00
2023-01-04T05:06:44.553Z,101339.94
2023-01-04T05:09:13.433Z,101338.09
2023-01-04T05:11:59.168Z,101335.41
2023-01-04T05:14:29.088Z,101345.13
2023-01-04T05:16:57.268Z,101331.69
2023-01-04T05:19:25.397Z,101334.53
2023-01-04T05:21:53.525Z,101325.75
2023-01-04T05:24:21.566Z,101332.63
2023-01-04T05:26:49.636Z,101327.38
2023-01-04T05:29:31.573Z,101332.53
2023-01-04T05:32:01.473Z,101323.81
2023-01-04T05:34:29.614Z,101315.78
2023-01-04T05:36:57.629Z,101315.94
2023-01-04T05:39:25.725Z,101303.66
2023-01-04T05:42:11.062Z,101306.13
2023-01-04T05:44:39.460Z,101298.34
2023-01-04T05:47:14.723Z,101306.06
2023-01-04T05:49:43.402Z,101305.19
2023-01-04T05:52:12.179Z,101297.09
2023-01-04T05:54:40.548Z,101303.09
2023-01-04T05:57:09.464Z,101291.59
2023-01-04T05:59:41.736Z,101294.13
2023-01-04T06:02:16.339Z,101281.09
2023-01-04T06:04:44.607Z,101273.31
2023-01-04T06:07:12.946Z,101268.81
2023-01-04T06:09:41.721Z,101275.53
2023-01-04T06:12:10.088Z,101276.47
2023-01-04T06:14:38.242Z,101280.78
2023-01-04T06:17:06.480Z,101274.59
2023-01-04T06:19:36.371Z,101276.47
2023-01-04T06:22:04.657Z,101271.97
2023-01-04T06:24:34.211Z,101273.75
2023-01-04T06:27:02.537Z,101276.28
2023-01-04T06:29:30.800Z,101279.69
2023-01-04T06:31:58.963Z,101266.50
2023-01-04T06:34:30.810Z,101280.38
2023-01-04T06:37:01.094Z,101278.44
2023-01-04T06:39:29.279Z,101287.84
2023-01-04T06:42:05.387Z,101287.84
2023-01-04T06:44:34.699Z,101284.03
2023-01-04T06:47:02.804Z,101282.94
2023-01-04T06:49:30.894Z,101274.97
2023-01-04T06:52:00.476Z,101268.88
2023-01-04T06:54:29.841Z,101279.28
2023-01-04T06:56:58.020Z,101271.00
2023-01-04T06:59:26.093Z,101282.53
2023-01-04T07:01:54.383Z,101266.78
2023-01-04T07:04:22.975Z,101261.44
2023-01-04T07:06:51.062Z,101258.63
2023-01-04T07:09:20.654Z,101261.16
2023-01-04T07:11:48.765Z,101268.97
2023-01-04T07:14:17.073Z,101256.34
2023-01-04T07:16:45.345Z,101264.06
2023-01-04T07:19:13.754Z,101266.69
2023-01-04T07:21:42.160Z,101259.56
2023-01-04T07:24:10.987Z,101248.31
2023-01-04T07:26:40.683Z,101235.22
2023-01-04T07:29:18.023Z,101243.06
2023-01-04T07:31:47.970Z,101234.22
2023-01-04T07:34:16.855Z,101222.69
2023-01-04T07:36:45.078Z,101227.09
2023-01-04T07:39:13.187Z,101228.63
2023-01-04T07:41:43.553Z,101229.47
2023-01-04T07:44:13.179Z,101213.47
2023-01-04T07:46:42.720Z,101202.16
2023-01-04T07:49:17.566Z,101202.16
2023-01-04T07:51:47.258Z,101197.69
2023-01-04T07:54:16.226Z,101190.72
2023-01-04T07:56:46.449Z,101186.31
2023-01-04T07:59:15.620Z,101169.44
2023-01-04T08:01:43.882Z,101173.03
2023-01-04T08:04:14.208Z,101179.13
2023-01-04T08:06:44.214Z,101187.75
2023-01-04T08:09:13.037Z,101178.84
2023-01-04T08:11:41.400Z,101187.75
2023-01-04T08:14:11.422Z,101190.13
2023-01-04T08:16:41.886Z,101184.88
2023-01-04T08:19:14.461Z,101194.69
2023-01-04T08:21:42.566Z,101195.63
2023-01-04T08:24:13.780Z,101197.06
2023-01-04T08:26:41.925Z,101190.72
2023-01-04T08:29:11.892Z,101192.47
2023-01-04T08:31:40.901Z,101188.91
2023-01-04T08:34:12.002Z,101195.69
2023-01-04T08:36:47.746Z,101210.72
2023-01-04T08:39:15.938Z,101197.56
2023-01-04T08:42:00.707Z,101196.53
2023-01-04T08:44:34.536Z,101193.84
2023-01-04T08:47:02.874Z,101197.97
2023-01-04T08:49:31.064Z,101199.66
2023-01-04T08:51:59.472Z,101201.34
2023-01-04T08:54:28.696Z,101201.25
2023-01-04T08:56:56.846Z,101198.53
2023-01-04T08:59:24.959Z,101186.34
2023-01-04T09:01:56.555Z,101191.59
2023-01-04T09:04:29.412Z,101184.56
2023-01-04T09:06:58.339Z,101179.19
2023-01-04T09:09:26.646Z,101185.22
2023-01-04T09:11:54.707Z,101182.59
2023-01-04T09:14:22.847Z,101175.53
2023-01-04T09:16:50.925Z,101166.66
2023-01-04T09:19:22.386Z,101172.09
2023-01-04T09:21:51.003Z,101160.38
2023-01-04T09:24:21.604Z,101157.66
2023-01-04T09:26:49.799Z,101166.47
2023-01-04T09:29:17.912Z,101187.50
2023-01-04T09:31:46.113Z,101188.00
2023-01-04T09:34:16.552Z,101180.09
2023-01-04T09:36:48.088Z,101177.38
2023-01-04T09:39:24.729Z,101186.88
2023-01-04T09:41:58.182Z,101192.97
2023-01-04T09:45:12.127Z,101192.03
2023-01-04T09:47:31.500Z,101194.78
2023-01-04T09:50:06.172Z,101200.84
2023-01-04T09:52:44.916Z,101199.00
2023-01-04T09:55:38.862Z,101198.06
2023-01-04T09:58:19.498Z,101202.47
2023-01-04T10:00:52.073Z,101203.13
2023-01-04T10:03:24.858Z,101210.34
2023-01-04T10:05:56.382Z,101211.03
2023-01-04T10:08:26.649Z,101209.44
2023-01-04T10:11:08.923Z,101210.19
2023-01-04T10:13:56.983Z,101205.09
2023-01-04T10:17:12.035Z,101209.34
2023-01-04T10:21:12.912Z,101208.97
2023-01-04T10:22:46.303Z,101208.13
2023-01-04T10:25:25.898Z,101216.78
2023-01-04T10:28:08.225Z,101222.03
2023-01-04T10:30:45.493Z,101209.81
2023-01-04T10:33:15.729Z,101209.06
2023-01-04T10:35:45.953Z,101221.19
2023-01-04T10:38:18.823Z,101210.69
2023-01-04T10:40:50.457Z,101212.19
2023-01-04T10:44:12.181Z,101218.38
2023-01-04T10:46:31.655Z,101207.66
2023-01-04T10:49:08.250Z,101207.66
2023-01-04T10:51:42.823Z,101201.66
2023-01-04T10:54:20.790Z,101209.47
2023-01-04T10:57:01.153Z,101204.38
2023-01-04T10:59:39.895Z,101195.28
2023-01-04T11:02:20.632Z,101198.06
2023-01-04T11:04:57.059Z,101189.25
2023-01-04T11:07:30.291Z,101185.50
2023-01-04T11:10:04.184Z,101183.63
2023-01-04T11:12:33.650Z,101181.94
2023-01-04T11:15:01.829Z,101187.88
2023-01-04T11:17:31.501Z,101186.16
2023-01-04T11:20:00.019Z,101185.31
2023-01-04T11:22:36.236Z,101177.25
2023-01-04T11:25:34.587Z,101175.44
2023-01-04T11:28:05.950Z,101173.66
2023-01-04T11:30:47.710Z,101167.66
2023-01-04T11:33:19.255Z,101165.75
2023-01-04T11:35:49.532Z,101168.34
2023-01-04T11:38:20.860Z,101165.69
2023-01-04T11:41:01.424Z,101155.91
2023-01-04T11:43:31.882Z,101151.47
2023-01-04T11:46:03.433Z,101151.47
2023-01-04T11:48:40.377Z,101143.69
2023-01-04T11:51:18.391Z,101152.53
2023-01-04T11:53:47.631Z,101149.91
2023-01-04T11:56:23.880Z,101150.66
2023-01-04T11:59:12.025Z,101134.56
2023-01-04T12:01:42.029Z,101138.25
2023-01-04T12:04:19.631Z,101132.41
2023-01-04T12:06:52.722Z,101124.50
2023-01-04T12:09:22.465Z,101128.84
2023-01-04T12:11:53.523Z,101126.19
2023-01-04T12:14:26.753Z,101134.19
2023-01-04T12:17:03.358Z,101132.31
2023-01-04T12:19:32.030Z,101133.84
2023-01-04T12:22:02.979Z,101137.09
2023-01-04T12:24:32.977Z,101138.59
2023-01-04T12:27:02.751Z,101136.91
2023-01-04T12:29:56.004Z,101126.09
2023-01-04T12:32:41.436Z,101106.53
2023-01-04T12:35:58.447Z,101107.28
2023-01-04T12:39:05.708Z,101115.94
2023-01-04T12:42:19.559Z,101119.94
2023-01-04T12:45:24.179Z,101111.03
2023-01-04T12:48:12.830Z,101110.91
2023-01-04T12:51:32.924Z,101120.09
2023-01-04T12:54:03.457Z,101114.72
2023-01-04T12:57:08.574Z,101104.84
2023-01-04T12:59:38.230Z,101095.72
2023-01-04T13:02:21.868Z,101090.34
2023-01-04T13:05:16.846Z,101095.59
2023-01-04T13:07:45.879Z,101091.81
2023-01-04T13:10:28.180Z,101098.78
2023-01-04T13:13:21.887Z,101104.28
2023-01-04T13:16:02.932Z,101100.50
2023-01-04T13:18:38.998Z,101107.13
2023-01-04T13:21:15.112Z,101111.47
2023-01-04T13:23:49.995Z,101119.28
2023-01-04T13:26:45.984Z,101120.75
2023-01-04T13:29:20.352Z,101130.66
2023-01-04T13:31:56.649Z,101130.66
2023-01-04T13:34:31.712Z,101123.59
2023-01-04T13:37:14.892Z,101113.16
2023-01-04T13:39:45.910Z,101121.59
2023-01-04T13:42:24.534Z,101120.03
2023-01-04T13:45:20.429Z,101117.19
2023-01-04T13:47:51.987Z,101120.56
2023-01-04T13:50:29.084Z,101131.94
2023-01-04T13:53:06.884Z,101124.88
2023-01-04T13:55:38.134Z,101112.66
2023-01-04T13:58:08.054Z,101104.75
2023-01-04T14:00:43.804Z,101105.41
2023-01-04T14:03:26.499Z,101100.78
2023-01-04T14:06:02.769Z,101086.53
2023-01-04T14:08:37.498Z,101086.75
2023-01-04T14:11:37.950Z,101081.47
2023-01-04T14:14:20.334Z,101086.84
2023-01-04T14:16:49.017Z,101087.69
2023-01-04T14:19:43.685Z,101070.94
2023-01-04T14:22:40.451Z,101074.50
2023-01-04T14:25:56.158Z,101085.81
2023-01-04T14:28:35.239Z,101078.00
2023-01-04T14:31:22.469Z,101082.41
2023-01-04T14:33:53.548Z,101071.88
2023-01-04T14:36:26.699Z,101081.56
2023-01-04T14:39:10.921Z,101086.00
2023-01-04T14:41:41.638Z,101084.00
2023-01-04T14:44:16.880Z,101083.91
2023-01-04T14:46:47.315Z,101092.75
2023-01-04T14:49:19.821Z,101091.81
2023-01-04T14:51:50.823Z,101098.97
2023-01-04T14:54:24.636Z,101098.22
2023-01-04T14:56:54.308Z,101102.75
2023-01-04T14:59:24.893Z,101098.31
2023-01-04T15:01:53.449Z,101101.81
2023-01-04T15:04:21.751Z,101099.38
2023-01-04T15:06:52.127Z,101090.84
2023-01-04T15:09:20.585Z,101086.63
2023-01-04T15:11:48.697Z,101086.50
2023-01-04T15:14:16.931Z,101091.22
2023-01-04T15:16:46.837Z,101085.84
2023-01-04T15:19:15.832Z,101089.34
2023-01-04T15:21:44.253Z,101100.06
2023-01-04T15:24:12.645Z,101099.03
2023-01-04T15:26:41.149Z,101095.00
2023-01-04T15:29:09.930Z,101097.75
2023-01-04T15:31:41.692Z,101103.94
2023-01-04T15:34:11.385Z,101118.81
2023-01-04T15:36:41.263Z,101114.59
2023-01-04T15:39:12.291Z,101114.59
2023-01-04T15:42:12.575Z,101116.28
2023-01-04T15:44:40.645Z,101110.78
2023-01-04T15:47:09.056Z,101100.34
2023-01-04T15:49:38.671Z,101111.81
2023-01-04T15:52:07.232Z,101108.53
2023-01-04T15:54:35.619Z,101100.63
2023-01-04T15:57:03.687Z,101100.63
2023-01-04T15:59:31.810Z,101103.69
2023-01-04T16:02:00.000Z,101102.91
2023-01-04T16:04:29.066Z,101098.59
2023-01-04T16:06:58.637Z,101097.03
2023-01-04T16:09:26.765Z,101092.78
2023-01-04T16:12:12.272Z,101088.34
2023-01-04T16:14:40.386Z,101087.53
2023-01-04T16:17:08.541Z,101083.09
2023-01-04T16:19:36.611Z,101092.03
2023-01-04T16:22:06.205Z,101074.53
2023-01-04T16:27:22.442Z,101073.81
2023-01-04T16:29:51.643Z,101068.53
2023-01-04T16:32:20.358Z,101086.09
2023-01-04T16:34:50.396Z,101097.72
2023-01-04T16:37:20.288Z,101093.47
2023-01-04T16:40:05.733Z,101092.59
2023-01-04T16:42:35.060Z,101086.63
2023-01-04T16:45:03.191Z,101099.00
2023-01-04T16:47:41.887Z,101113.13
2023-01-04T16:50:10.912Z,101113.97
2023-01-04T16:52:41.024Z,101115.84
2023-01-04T16:55:10.892Z,101115.25
2023-01-04T16:57:39.124Z,101118.19
2023-01-04T17:00:08.526Z,101120.84
2023-01-04T17:02:36.650Z,101105.16
2023-01-04T17:05:05.218Z,101115.25
2023-01-04T17:07:33.657Z,101095.06
2023-01-04T17:10:03.219Z,101084.19
2023-01-04T17:12:48.574Z,101103.25
2023-01-04T17:18:06.224Z,101113.13
2023-01-04T17:20:34.388Z,101111.44
2023-01-04T17:23:02.474Z,101105.78
2023-01-04T17:25:34.234Z,101118.31
2023-01-04T17:28:02.387Z,101118.19
2023-01-04T17:30:30.728Z,101128.06
2023-01-04T17:32:58.796Z,101124.81
2023-01-04T17:35:26.892Z,101141.31
2023-01-04T17:37:54.905Z,101131.84
2023-01-04T17:40:23.770Z,101131.94
2023-01-04T17:42:53.469Z,101147.72
2023-01-04T17:45:21.880Z,101139.00
2023-01-04T17:47:50.147Z,101140.75
2023-01-04T17:50:19.545Z,101133.06
2023-01-04T17:52:49.075Z,101133.72
2023-01-04T17:55:17.560Z,101142.66
2023-01-04T17:57:45.753Z,101149.78
2023-01-04T18:00:16.256Z,101159.28
2023-01-04T18:02:44.530Z,101164.75
2023-01-04T18:05:12.701Z,101176.00
2023-01-04T18:07:40.832Z,101176.09
2023-01-04T18:10:20.619Z,101168.41
2023-01-04T18:13:00.620Z,101184.00
2023-01-04T18:15:30.074Z,101178.00
2023-01-04T18:17:58.144Z,101173.66
2023-01-04T18:20:26.982Z,101167.47
2023-01-04T18:22:55.055Z,101181.66
2023-01-04T18:25:23.203Z,101176.59
2023-01-04T18:27:51.340Z,101171.97
2023-01-04T18:30:19.535Z,101163.16
2023-01-04T18:32:49.484Z,101150.91
2023-01-04T18:35:17.762Z,101176.59
2023-01-04T18:37:46.483Z,101167.84
2023-01-04T18:40:14.601Z,101158.19
2023-01-04T18:42:47.355Z,101169.53
2023-01-04T18:45:15.262Z,101169.53
2023-01-04T18:47:47.467Z,101171.97
2023-01-04T18:50:17.551Z,101181.75
2023-01-04T18:52:46.252Z,101200.28
2023-01-04T18:55:14.420Z,101190.50
2023-01-04T18:57:42.661Z,101181.00
2023-01-04T19:00:12.490Z,101186.84
2023-01-04T19:02:40.845Z,101171.25
2023-01-04T19:05:10.441Z,101174.69
2023-01-04T19:07:40.534Z,101185.31
2023-01-04T19:10:09.663Z,101189.81
2023-01-04T19:12:39.067Z,101199.72
2023-01-04T19:15:09.264Z,101200.34
2023-01-04T19:17:38.898Z,101203.75
2023-01-04T19:20:08.554Z,101204.78
2023-01-04T19:22:36.671Z,101201.22
2023-01-04T19:25:07.387Z,101213.44
2023-01-04T19:27:35.731Z,101209.09
2023-01-04T19:30:04.019Z,101211.94
2023-01-04T19:32:33.905Z,101208.34
2023-01-04T19:35:02.289Z,101212.56
2023-01-04T19:37:30.553Z,101216.22
2023-01-04T19:40:00.896Z,101212.09
2023-01-04T19:42:30.380Z,101209.75
2023-01-04T19:44:58.644Z,101206.72
2023-01-04T19:47:26.978Z,101209.47
2023-01-04T19:49:55.149Z,101200.72
2023-01-04T19:52:23.302Z,101205.22
2023-01-04T19:54:51.586Z,101213.13
2023-01-04T19:57:19.675Z,101204.50
2023-01-04T19:59:49.130Z,101216.88
2023-01-04T20:02:17.418Z,101231.00
2023-01-04T20:04:45.893Z,101230.13
2023-01-04T20:07:13.998Z,101236.25
2023-01-04T20:09:42.164Z,101243.28
2023-01-04T20:12:10.234Z,101232.13
2023-01-04T20:14:39.404Z,101237.28
2023-01-04T20:17:08.945Z,101230.50
2023-01-04T20:19:37.090Z,101234.75
2023-01-04T20:22:05.192Z,101227.00
2023-01-04T20:24:33.406Z,101236.78
2023-01-04T20:27:01.529Z,101235.94
2023-01-04T20:29:29.661Z,101236.41
2023-01-04T20:31:57.785Z,101246.28
2023-01-04T20:34:27.596Z,101245.44
2023-01-04T20:36:55.597Z,101250.53
2023-01-04T20:39:23.781Z,101245.34
2023-01-04T20:42:09.536Z,101241.13
2023-01-04T20:44:39.109Z,101240.16
2023-01-04T20:47:07.190Z,101242.44
2023-01-04T20:49:36.798Z,101236.59
2023-01-04T20:52:05.063Z,101238.41
2023-01-04T20:54:33.333Z,101237.63
2023-01-04T20:57:01.454Z,101240.16
2023-01-04T20:59:29.486Z,101244.69
2023-01-04T21:01:57.953Z,101247.31
2023-01-04T21:04:26.501Z,101241.38
2023-01-04T21:06:55.963Z,101253.69
2023-01-04T21:09:24.233Z,101248.69
2023-01-04T21:11:53.279Z,101268.72
2023-01-04T21:14:26.564Z,101272.28
2023-01-04T21:16:54.670Z,101270.59
2023-01-04T21:19:25.373Z,101264.97
2023-01-04T21:21:53.436Z,101260.06
2023-01-04T21:24:23.338Z,101257.53
2023-01-04T21:26:51.725Z,101268.16
2023-01-04T21:29:22.749Z,101270.59
2023-01-04T21:31:50.875Z,101268.88
2023-01-04T21:34:22.860Z,101265.34
2023-01-04T21:36:51.420Z,101270.78
2023-01-04T21:39:19.573Z,101276.19
2023-01-04T21:41:51.290Z,101278.81
2023-01-04T21:44:19.433Z,101279.75
2023-01-04T21:46:47.767Z,101281.66
2023-01-04T21:49:15.865Z,101284.28
2023-01-04T21:51:43.981Z,101292.25
2023-01-04T21:54:12.423Z,101287.09
2023-01-04T21:56:40.627Z,101302.88
2023-01-04T21:59:10.083Z,101294.19
2023-01-04T22:01:38.589Z,101296.91
2023-01-04T22:04:07.517Z,101297.75
2023-01-04T22:06:37.527Z,101298.53
2023-01-04T22:09:07.138Z,101292.50
2023-01-04T22:11:35.349Z,101292.50
2023-01-04T22:14:03.430Z,101300.47
2023-01-04T22:16:35.156Z,101289.81
2023-01-04T22:19:03.321Z,101301.50
2023-01-04T22:21:31.465Z,101311.97
2023-01-04T22:23:59.605Z,101301.44
2023-01-04T22:26:27.803Z,101314.72
2023-01-04T22:28:55.899Z,101323.50
2023-01-04T22:31:24.065Z,101315.59
2023-01-04T22:33:53.824Z,101302.66
2023-01-04T22:36:23.561Z,101318.53
2023-01-04T22:38:52.721Z,101316.91
2023-01-04T22:41:22.320Z,101321.34
2023-01-04T22:43:56.556Z,101328.44
2023-01-04T22:46:26.088Z,101319.63
2023-01-04T22:48:56.195Z,101322.28
2023-01-04T22:51:27.497Z,101330.34
2023-01-04T22:53:56.663Z,101330.53
2023-01-04T22:56:25.536Z,101326.09
2023-01-04T22:58:55.864Z,101341.97
2023-01-04T23:01:24.949Z,101335.19
2023-01-04T23:03:54.585Z,101347.53
2023-01-04T23:06:25.857Z,101355.44
2023-01-04T23:08:59.146Z,101355.34
2023-01-04T23:11:29.301Z,101352.13
2023-01-04T23:13:58.073Z,101351.97
2023-01-04T23:16:32.276Z,101358.31
2023-01-04T23:19:02.033Z,101370.03
2023-01-04T23:21:31.901Z,101363.75
2023-01-04T23:24:00.384Z,101364.84
2023-01-04T23:26:29.867Z,101368.31
2023-01-04T23:28:57.971Z,101372.88
2023-01-04T23:31:28.640Z,101378.13
2023-01-04T23:33:58.768Z,101383.47
2023-01-04T23:36:29.382Z,101376.47
2023-01-04T23:39:01.361Z,101387.13
2023-01-04T23:41:43.767Z,101391.28
2023-01-04T23:44:16.729Z,101381.63
2023-01-04T23:46:45.300Z,101385.09
2023-01-04T23:49:13.864Z,101381.84
2023-01-04T23:51:42.790Z,101385.75
2023-01-04T23:54:12.689Z,101377.03
2023-01-04T23:56:41.026Z,101380.75
2023-01-04T23:59:09.337Z,101375.66
